sensor_id;sensor_type;location;lat;lon;timestamp;P1;durP1;ratioP1;P2;durP2;ratioP2
15340;SDS011;7770;52.158;5.372;2023-04-21T00:01:30;23.47;;;19.30;;
15340;SDS011;7770;52.158;5.372;2023-04-21T00:04:17;23.53;;;19.33;;
15340;SDS011;7770;52.158;5.372;2023-04-21T00:07:04;25.47;;;19.83;;
15340;SDS011;7770;52.158;5.372;2023-04-21T00:09:50;25.17;;;19.50;;
15340;SDS011;7770;52.158;5.372;2023-04-21T00:12:36;26.03;;;20.23;;
15340;SDS011;7770;52.158;5.372;2023-04-21T00:15:22;25.67;;;20.20;;
15340;SDS011;7770;52.158;5.372;2023-04-21T00:18:08;26.17;;;20.33;;
15340;SDS011;7770;52.158;5.372;2023-04-21T00:20:54;27.43;;;20.57;;
15340;SDS011;7770;52.158;5.372;2023-04-21T00:23:40;30.70;;;21.50;;
15340;SDS011;7770;52.158;5.372;2023-04-21T00:26:26;30.43;;;22.37;;
15340;SDS011;7770;52.158;5.372;2023-04-21T00:29:12;29.93;;;21.83;;
15340;SDS011;7770;52.158;5.372;2023-04-21T00:31:58;27.80;;;18.33;;
15340;SDS011;7770;52.158;5.372;2023-04-21T00:34:46;30.37;;;22.80;;
15340;SDS011;7770;52.158;5.372;2023-04-21T00:37:32;30.23;;;23.03;;
15340;SDS011;7770;52.158;5.372;2023-04-21T00:40:18;32.50;;;22.97;;
15340;SDS011;7770;52.158;5.372;2023-04-21T00:43:05;36.17;;;25.20;;
15340;SDS011;7770;52.158;5.372;2023-04-21T00:45:51;32.03;;;22.03;;
15340;SDS011;7770;52.158;5.372;2023-04-21T00:48:37;37.43;;;25.83;;
15340;SDS011;7770;52.158;5.372;2023-04-21T00:51:23;39.23;;;26.17;;
15340;SDS011;7770;52.158;5.372;2023-04-21T00:54:12;36.50;;;24.80;;
15340;SDS011;7770;52.158;5.372;2023-04-21T00:56:59;37.93;;;26.27;;
15340;SDS011;7770;52.158;5.372;2023-04-21T00:59:46;36.67;;;27.70;;
15340;SDS011;7770;52.158;5.372;2023-04-21T01:02:33;39.80;;;28.20;;
15340;SDS011;7770;52.158;5.372;2023-04-21T01:05:21;40.40;;;28.07;;
15340;SDS011;7770;52.158;5.372;2023-04-21T01:08:07;38.03;;;26.70;;
15340;SDS011;7770;52.158;5.372;2023-04-21T01:10:53;44.43;;;27.93;;
15340;SDS011;7770;52.158;5.372;2023-04-21T01:13:39;40.60;;;27.70;;
15340;SDS011;7770;52.158;5.372;2023-04-21T01:16:25;42.67;;;29.33;;
15340;SDS011;7770;52.158;5.372;2023-04-21T01:19:11;42.90;;;29.47;;
15340;SDS011;7770;52.158;5.372;2023-04-21T01:21:57;45.47;;;30.60;;
15340;SDS011;7770;52.158;5.372;2023-04-21T01:24:45;44.23;;;30.77;;
15340;SDS011;7770;52.158;5.372;2023-04-21T01:27:32;45.87;;;31.83;;
15340;SDS011;7770;52.158;5.372;2023-04-21T01:30:18;47.20;;;32.30;;
15340;SDS011;7770;52.158;5.372;2023-04-21T01:33:05;45.13;;;31.67;;
15340;SDS011;7770;52.158;5.372;2023-04-21T01:35:51;47.07;;;31.30;;
15340;SDS011;7770;52.158;5.372;2023-04-21T01:38:38;44.93;;;32.00;;
15340;SDS011;7770;52.158;5.372;2023-04-21T01:41:25;45.67;;;31.43;;
15340;SDS011;7770;52.158;5.372;2023-04-21T01:44:11;46.93;;;31.93;;
15340;SDS011;7770;52.158;5.372;2023-04-21T01:46:57;47.27;;;33.23;;
15340;SDS011;7770;52.158;5.372;2023-04-21T01:49:43;47.20;;;32.50;;
15340;SDS011;7770;52.158;5.372;2023-04-21T01:52:29;49.57;;;33.57;;
15340;SDS011;7770;52.158;5.372;2023-04-21T01:55:15;49.97;;;33.00;;
15340;SDS011;7770;52.158;5.372;2023-04-21T01:58:01;49.57;;;33.27;;
15340;SDS011;7770;52.158;5.372;2023-04-21T02:00:48;46.67;;;32.33;;
15340;SDS011;7770;52.158;5.372;2023-04-21T02:03:34;50.73;;;34.00;;
15340;SDS011;7770;52.158;5.372;2023-04-21T02:06:20;50.50;;;33.87;;
15340;SDS011;7770;52.158;5.372;2023-04-21T02:09:06;48.57;;;33.87;;
15340;SDS011;7770;52.158;5.372;2023-04-21T02:11:53;50.63;;;34.20;;
15340;SDS011;7770;52.158;5.372;2023-04-21T02:14:41;52.77;;;34.93;;
15340;SDS011;7770;52.158;5.372;2023-04-21T02:17:27;46.67;;;32.30;;
15340;SDS011;7770;52.158;5.372;2023-04-21T02:20:13;50.63;;;34.80;;
15340;SDS011;7770;52.158;5.372;2023-04-21T02:22:59;50.17;;;33.47;;
15340;SDS011;7770;52.158;5.372;2023-04-21T02:25:45;49.83;;;34.10;;
15340;SDS011;7770;52.158;5.372;2023-04-21T02:28:31;51.83;;;31.10;;
15340;SDS011;7770;52.158;5.372;2023-04-21T02:31:17;47.73;;;33.63;;
15340;SDS011;7770;52.158;5.372;2023-04-21T02:34:03;52.40;;;34.07;;
15340;SDS011;7770;52.158;5.372;2023-04-21T02:36:49;49.53;;;33.77;;
15340;SDS011;7770;52.158;5.372;2023-04-21T02:39:35;53.80;;;33.57;;
15340;SDS011;7770;52.158;5.372;2023-04-21T02:42:21;54.17;;;33.93;;
15340;SDS011;7770;52.158;5.372;2023-04-21T02:45:07;50.67;;;35.10;;
15340;SDS011;7770;52.158;5.372;2023-04-21T02:47:54;48.03;;;32.30;;
15340;SDS011;7770;52.158;5.372;2023-04-21T02:50:41;47.67;;;33.77;;
15340;SDS011;7770;52.158;5.372;2023-04-21T02:53:27;50.70;;;33.70;;
15340;SDS011;7770;52.158;5.372;2023-04-21T02:56:13;47.67;;;32.80;;
15340;SDS011;7770;52.158;5.372;2023-04-21T02:59:00;50.53;;;34.93;;
15340;SDS011;7770;52.158;5.372;2023-04-21T03:01:46;54.00;;;34.30;;
15340;SDS011;7770;52.158;5.372;2023-04-21T03:04:33;52.83;;;34.90;;
15340;SDS011;7770;52.158;5.372;2023-04-21T03:07:19;53.03;;;33.23;;
15340;SDS011;7770;52.158;5.372;2023-04-21T03:10:05;53.57;;;36.10;;
15340;SDS011;7770;52.158;5.372;2023-04-21T03:12:51;55.50;;;37.13;;
15340;SDS011;7770;52.158;5.372;2023-04-21T03:15:38;57.50;;;37.27;;
15340;SDS011;7770;52.158;5.372;2023-04-21T03:18:24;55.23;;;33.50;;
15340;SDS011;7770;52.158;5.372;2023-04-21T03:21:10;51.63;;;34.87;;
15340;SDS011;7770;52.158;5.372;2023-04-21T03:23:56;55.10;;;33.93;;
15340;SDS011;7770;52.158;5.372;2023-04-21T03:26:42;51.40;;;36.10;;
15340;SDS011;7770;52.158;5.372;2023-04-21T03:29:28;53.70;;;35.97;;
15340;SDS011;7770;52.158;5.372;2023-04-21T03:32:14;56.33;;;36.57;;
15340;SDS011;7770;52.158;5.372;2023-04-21T03:35:00;53.67;;;36.07;;
15340;SDS011;7770;52.158;5.372;2023-04-21T03:37:46;52.43;;;35.20;;
15340;SDS011;7770;52.158;5.372;2023-04-21T03:40:33;53.53;;;34.97;;
15340;SDS011;7770;52.158;5.372;2023-04-21T03:43:19;54.23;;;35.23;;
15340;SDS011;7770;52.158;5.372;2023-04-21T03:46:05;55.43;;;36.07;;
15340;SDS011;7770;52.158;5.372;2023-04-21T03:48:51;55.10;;;34.10;;
15340;SDS011;7770;52.158;5.372;2023-04-21T03:51:37;47.23;;;33.00;;
15340;SDS011;7770;52.158;5.372;2023-04-21T03:54:23;50.93;;;34.30;;
15340;SDS011;7770;52.158;5.372;2023-04-21T03:57:09;51.27;;;35.77;;
15340;SDS011;7770;52.158;5.372;2023-04-21T03:59:56;50.97;;;34.90;;
15340;SDS011;7770;52.158;5.372;2023-04-21T04:02:42;53.63;;;36.37;;
15340;SDS011;7770;52.158;5.372;2023-04-21T04:05:28;54.33;;;36.60;;
15340;SDS011;7770;52.158;5.372;2023-04-21T04:08:14;49.30;;;35.00;;
15340;SDS011;7770;52.158;5.372;2023-04-21T04:11:00;50.23;;;34.87;;
15340;SDS011;7770;52.158;5.372;2023-04-21T04:13:46;53.13;;;35.80;;
15340;SDS011;7770;52.158;5.372;2023-04-21T04:16:33;49.20;;;34.83;;
15340;SDS011;7770;52.158;5.372;2023-04-21T04:19:19;51.53;;;35.27;;
15340;SDS011;7770;52.158;5.372;2023-04-21T04:22:05;50.50;;;35.23;;
15340;SDS011;7770;52.158;5.372;2023-04-21T04:24:51;49.57;;;34.33;;
15340;SDS011;7770;52.158;5.372;2023-04-21T04:27:37;47.53;;;30.70;;
15340;SDS011;7770;52.158;5.372;2023-04-21T04:30:23;47.67;;;33.77;;
15340;SDS011;7770;52.158;5.372;2023-04-21T04:33:13;48.17;;;33.27;;
15340;SDS011;7770;52.158;5.372;2023-04-21T04:35:59;48.03;;;33.23;;
15340;SDS011;7770;52.158;5.372;2023-04-21T04:38:45;48.17;;;32.60;;
15340;SDS011;7770;52.158;5.372;2023-04-21T04:41:31;46.03;;;32.70;;
15340;SDS011;7770;52.158;5.372;2023-04-21T04:44:18;46.63;;;32.53;;
15340;SDS011;7770;52.158;5.372;2023-04-21T04:47:04;49.90;;;33.07;;
15340;SDS011;7770;52.158;5.372;2023-04-21T04:49:50;46.73;;;33.93;;
15340;SDS011;7770;52.158;5.372;2023-04-21T04:52:36;47.33;;;33.97;;
15340;SDS011;7770;52.158;5.372;2023-04-21T04:55:22;52.40;;;36.10;;
15340;SDS011;7770;52.158;5.372;2023-04-21T04:58:08;51.70;;;35.33;;
15340;SDS011;7770;52.158;5.372;2023-04-21T05:00:54;49.97;;;33.40;;
15340;SDS011;7770;52.158;5.372;2023-04-21T05:03:40;53.40;;;37.73;;
15340;SDS011;7770;52.158;5.372;2023-04-21T05:06:26;50.27;;;35.23;;
15340;SDS011;7770;52.158;5.372;2023-04-21T05:09:12;52.50;;;36.67;;
15340;SDS011;7770;52.158;5.372;2023-04-21T05:11:59;52.87;;;38.17;;
15340;SDS011;7770;52.158;5.372;2023-04-21T05:14:45;55.30;;;37.73;;
15340;SDS011;7770;52.158;5.372;2023-04-21T05:17:32;56.97;;;39.47;;
15340;SDS011;7770;52.158;5.372;2023-04-21T05:20:19;54.87;;;39.20;;
15340;SDS011;7770;52.158;5.372;2023-04-21T05:23:05;52.17;;;36.33;;
15340;SDS011;7770;52.158;5.372;2023-04-21T05:25:51;53.07;;;38.23;;
15340;SDS011;7770;52.158;5.372;2023-04-21T05:28:37;49.43;;;33.97;;
15340;SDS011;7770;52.158;5.372;2023-04-21T05:31:23;40.57;;;26.63;;
15340;SDS011;7770;52.158;5.372;2023-04-21T05:34:10;48.87;;;35.20;;
15340;SDS011;7770;52.158;5.372;2023-04-21T05:36:56;51.73;;;36.93;;
15340;SDS011;7770;52.158;5.372;2023-04-21T05:39:41;51.63;;;38.40;;
15340;SDS011;7770;52.158;5.372;2023-04-21T05:42:28;49.10;;;37.00;;
15340;SDS011;7770;52.158;5.372;2023-04-21T05:45:13;52.53;;;37.63;;
15340;SDS011;7770;52.158;5.372;2023-04-21T05:47:59;49.93;;;34.27;;
15340;SDS011;7770;52.158;5.372;2023-04-21T05:50:45;47.97;;;29.37;;
15340;SDS011;7770;52.158;5.372;2023-04-21T05:53:31;52.60;;;36.47;;
15340;SDS011;7770;52.158;5.372;2023-04-21T05:56:17;53.53;;;39.40;;
15340;SDS011;7770;52.158;5.372;2023-04-21T05:59:03;50.30;;;36.47;;
15340;SDS011;7770;52.158;5.372;2023-04-21T06:01:51;52.80;;;37.80;;
15340;SDS011;7770;52.158;5.372;2023-04-21T06:04:37;51.33;;;36.60;;
15340;SDS011;7770;52.158;5.372;2023-04-21T06:07:23;49.77;;;37.07;;
15340;SDS011;7770;52.158;5.372;2023-04-21T06:10:09;49.60;;;38.50;;
15340;SDS011;7770;52.158;5.372;2023-04-21T06:12:56;44.63;;;30.70;;
15340;SDS011;7770;52.158;5.372;2023-04-21T06:15:42;49.67;;;31.53;;
15340;SDS011;7770;52.158;5.372;2023-04-21T06:18:28;56.97;;;40.17;;
15340;SDS011;7770;52.158;5.372;2023-04-21T06:21:14;51.90;;;35.50;;
15340;SDS011;7770;52.158;5.372;2023-04-21T06:24:00;47.30;;;32.33;;
15340;SDS011;7770;52.158;5.372;2023-04-21T06:26:46;51.20;;;38.07;;
15340;SDS011;7770;52.158;5.372;2023-04-21T06:29:32;52.43;;;37.90;;
15340;SDS011;7770;52.158;5.372;2023-04-21T06:32:18;56.23;;;41.07;;
15340;SDS011;7770;52.158;5.372;2023-04-21T06:35:04;52.10;;;39.37;;
15340;SDS011;7770;52.158;5.372;2023-04-21T06:37:51;52.93;;;39.60;;
15340;SDS011;7770;52.158;5.372;2023-04-21T06:40:37;42.03;;;29.67;;
15340;SDS011;7770;52.158;5.372;2023-04-21T06:43:23;48.97;;;37.47;;
15340;SDS011;7770;52.158;5.372;2023-04-21T06:46:09;50.37;;;36.03;;
15340;SDS011;7770;52.158;5.372;2023-04-21T06:48:56;47.33;;;38.50;;
15340;SDS011;7770;52.158;5.372;2023-04-21T06:51:42;50.53;;;38.03;;
15340;SDS011;7770;52.158;5.372;2023-04-21T06:54:28;53.93;;;39.47;;
15340;SDS011;7770;52.158;5.372;2023-04-21T06:57:14;53.67;;;40.93;;
15340;SDS011;7770;52.158;5.372;2023-04-21T07:00:02;47.97;;;37.50;;
15340;SDS011;7770;52.158;5.372;2023-04-21T07:02:50;46.90;;;39.00;;
15340;SDS011;7770;52.158;5.372;2023-04-21T07:05:36;48.33;;;38.27;;
15340;SDS011;7770;52.158;5.372;2023-04-21T07:08:22;46.33;;;35.27;;
15340;SDS011;7770;52.158;5.372;2023-04-21T07:11:09;43.00;;;32.73;;
15340;SDS011;7770;52.158;5.372;2023-04-21T07:13:55;46.27;;;35.03;;
15340;SDS011;7770;52.158;5.372;2023-04-21T07:16:42;43.23;;;34.97;;
15340;SDS011;7770;52.158;5.372;2023-04-21T07:19:28;37.23;;;32.23;;
15340;SDS011;7770;52.158;5.372;2023-04-21T07:22:14;35.37;;;30.07;;
15340;SDS011;7770;52.158;5.372;2023-04-21T07:25:01;33.83;;;30.13;;
15340;SDS011;7770;52.158;5.372;2023-04-21T07:27:51;30.57;;;23.27;;
15340;SDS011;7770;52.158;5.372;2023-04-21T07:30:37;36.83;;;30.13;;
15340;SDS011;7770;52.158;5.372;2023-04-21T07:33:23;41.53;;;34.57;;
15340;SDS011;7770;52.158;5.372;2023-04-21T07:36:09;41.93;;;35.67;;
15340;SDS011;7770;52.158;5.372;2023-04-21T07:38:55;41.93;;;36.10;;
15340;SDS011;7770;52.158;5.372;2023-04-21T07:41:41;44.23;;;36.20;;
15340;SDS011;7770;52.158;5.372;2023-04-21T07:44:27;46.47;;;38.20;;
15340;SDS011;7770;52.158;5.372;2023-04-21T07:47:13;45.23;;;38.20;;
15340;SDS011;7770;52.158;5.372;2023-04-21T07:49:59;38.60;;;29.77;;
15340;SDS011;7770;52.158;5.372;2023-04-21T07:52:46;41.93;;;36.13;;
15340;SDS011;7770;52.158;5.372;2023-04-21T07:55:32;43.93;;;36.27;;
15340;SDS011;7770;52.158;5.372;2023-04-21T07:58:19;44.37;;;37.40;;
15340;SDS011;7770;52.158;5.372;2023-04-21T08:01:06;42.73;;;36.63;;
15340;SDS011;7770;52.158;5.372;2023-04-21T08:03:52;40.43;;;36.00;;
15340;SDS011;7770;52.158;5.372;2023-04-21T08:06:37;41.70;;;37.07;;
15340;SDS011;7770;52.158;5.372;2023-04-21T08:09:23;40.67;;;36.20;;
15340;SDS011;7770;52.158;5.372;2023-04-21T08:12:10;42.60;;;35.67;;
15340;SDS011;7770;52.158;5.372;2023-04-21T08:14:56;42.13;;;36.40;;
15340;SDS011;7770;52.158;5.372;2023-04-21T08:17:42;41.67;;;35.90;;
15340;SDS011;7770;52.158;5.372;2023-04-21T08:20:28;41.73;;;36.07;;
15340;SDS011;7770;52.158;5.372;2023-04-21T08:23:14;42.63;;;37.83;;
15340;SDS011;7770;52.158;5.372;2023-04-21T08:26:01;46.40;;;38.23;;
15340;SDS011;7770;52.158;5.372;2023-04-21T08:28:47;42.43;;;36.63;;
15340;SDS011;7770;52.158;5.372;2023-04-21T08:31:35;47.17;;;37.40;;
15340;SDS011;7770;52.158;5.372;2023-04-21T08:34:21;38.70;;;34.53;;
15340;SDS011;7770;52.158;5.372;2023-04-21T08:37:07;37.93;;;33.80;;
15340;SDS011;7770;52.158;5.372;2023-04-21T08:39:53;39.40;;;35.17;;
15340;SDS011;7770;52.158;5.372;2023-04-21T08:42:39;36.20;;;32.40;;
15340;SDS011;7770;52.158;5.372;2023-04-21T08:45:25;34.40;;;22.77;;
15340;SDS011;7770;52.158;5.372;2023-04-21T08:48:12;42.47;;;35.87;;
15340;SDS011;7770;52.158;5.372;2023-04-21T08:51:03;39.17;;;34.60;;
15340;SDS011;7770;52.158;5.372;2023-04-21T08:53:56;42.03;;;36.03;;
15340;SDS011;7770;52.158;5.372;2023-04-21T08:56:43;40.70;;;36.30;;
15340;SDS011;7770;52.158;5.372;2023-04-21T08:59:29;42.13;;;35.50;;
15340;SDS011;7770;52.158;5.372;2023-04-21T09:02:16;39.63;;;31.97;;
15340;SDS011;7770;52.158;5.372;2023-04-21T09:05:03;42.70;;;35.23;;
15340;SDS011;7770;52.158;5.372;2023-04-21T09:07:49;39.90;;;34.13;;
15340;SDS011;7770;52.158;5.372;2023-04-21T09:10:47;39.67;;;30.87;;
15340;SDS011;7770;52.158;5.372;2023-04-21T09:13:35;39.30;;;35.10;;
15340;SDS011;7770;52.158;5.372;2023-04-21T09:16:22;37.10;;;33.00;;
15340;SDS011;7770;52.158;5.372;2023-04-21T09:19:14;38.03;;;33.83;;
15340;SDS011;7770;52.158;5.372;2023-04-21T09:22:00;42.57;;;37.53;;
15340;SDS011;7770;52.158;5.372;2023-04-21T09:24:47;39.37;;;35.03;;
15340;SDS011;7770;52.158;5.372;2023-04-21T09:27:37;41.90;;;37.03;;
15340;SDS011;7770;52.158;5.372;2023-04-21T09:30:23;40.60;;;36.30;;
15340;SDS011;7770;52.158;5.372;2023-04-21T09:33:14;37.90;;;33.90;;
15340;SDS011;7770;52.158;5.372;2023-04-21T09:36:02;37.97;;;33.77;;
15340;SDS011;7770;52.158;5.372;2023-04-21T09:41:39;34.53;;;30.83;;
15340;SDS011;7770;52.158;5.372;2023-04-21T09:44:25;35.13;;;31.47;;
15340;SDS011;7770;52.158;5.372;2023-04-21T09:47:11;35.17;;;31.47;;
15340;SDS011;7770;52.158;5.372;2023-04-21T09:49:59;34.67;;;30.97;;
15340;SDS011;7770;52.158;5.372;2023-04-21T09:52:52;36.30;;;31.50;;
15340;SDS011;7770;52.158;5.372;2023-04-21T09:55:40;35.13;;;31.53;;
15340;SDS011;7770;52.158;5.372;2023-04-21T09:58:27;32.20;;;27.43;;
15340;SDS011;7770;52.158;5.372;2023-04-21T10:01:19;32.50;;;29.13;;
15340;SDS011;7770;52.158;5.372;2023-04-21T10:04:09;35.13;;;29.93;;
15340;SDS011;7770;52.158;5.372;2023-04-21T10:06:55;35.53;;;31.73;;
15340;SDS011;7770;52.158;5.372;2023-04-21T10:09:45;37.30;;;33.27;;
15340;SDS011;7770;52.158;5.372;2023-04-21T10:12:40;35.80;;;32.00;;
15340;SDS011;7770;52.158;5.372;2023-04-21T10:15:30;32.50;;;26.07;;
15340;SDS011;7770;52.158;5.372;2023-04-21T10:18:17;32.77;;;29.27;;
15340;SDS011;7770;52.158;5.372;2023-04-21T10:21:08;36.13;;;31.77;;
15340;SDS011;7770;52.158;5.372;2023-04-21T10:23:56;33.00;;;29.67;;
15340;SDS011;7770;52.158;5.372;2023-04-21T10:26:43;36.10;;;32.40;;
15340;SDS011;7770;52.158;5.372;2023-04-21T10:29:30;33.33;;;29.87;;
15340;SDS011;7770;52.158;5.372;2023-04-21T10:33:01;30.53;;;27.10;;
15340;SDS011;7770;52.158;5.372;2023-04-21T10:38:53;34.20;;;29.87;;
15340;SDS011;7770;52.158;5.372;2023-04-21T10:41:44;36.00;;;32.40;;
15340;SDS011;7770;52.158;5.372;2023-04-21T10:44:30;35.57;;;31.77;;
15340;SDS011;7770;52.158;5.372;2023-04-21T10:47:26;35.70;;;31.90;;
15340;SDS011;7770;52.158;5.372;2023-04-21T10:50:24;37.13;;;33.20;;
15340;SDS011;7770;52.158;5.372;2023-04-21T10:53:15;35.60;;;31.63;;
15340;SDS011;7770;52.158;5.372;2023-04-21T10:56:01;37.43;;;33.03;;
15340;SDS011;7770;52.158;5.372;2023-04-21T10:58:49;35.40;;;30.97;;
15340;SDS011;7770;52.158;5.372;2023-04-21T11:01:38;31.43;;;24.57;;
15340;SDS011;7770;52.158;5.372;2023-04-21T11:04:25;31.87;;;27.87;;
15340;SDS011;7770;52.158;5.372;2023-04-21T11:07:21;33.57;;;28.83;;
15340;SDS011;7770;52.158;5.372;2023-04-21T11:10:08;36.90;;;33.07;;
15340;SDS011;7770;52.158;5.372;2023-04-21T11:12:56;38.63;;;34.53;;
15340;SDS011;7770;52.158;5.372;2023-04-21T11:15:54;37.70;;;33.60;;
15340;SDS011;7770;52.158;5.372;2023-04-21T11:18:45;36.60;;;32.63;;
15340;SDS011;7770;52.158;5.372;2023-04-21T11:21:32;34.13;;;29.33;;
15340;SDS011;7770;52.158;5.372;2023-04-21T11:24:18;36.23;;;32.47;;
15340;SDS011;7770;52.158;5.372;2023-04-21T11:27:07;28.77;;;23.50;;
15340;SDS011;7770;52.158;5.372;2023-04-21T11:29:53;32.93;;;29.33;;
15340;SDS011;7770;52.158;5.372;2023-04-21T11:32:41;38.03;;;33.63;;
15340;SDS011;7770;52.158;5.372;2023-04-21T11:35:27;36.03;;;32.33;;
15340;SDS011;7770;52.158;5.372;2023-04-21T11:38:13;36.47;;;32.07;;
15340;SDS011;7770;52.158;5.372;2023-04-21T11:41:00;37.37;;;33.37;;
15340;SDS011;7770;52.158;5.372;2023-04-21T11:43:46;33.40;;;25.13;;
15340;SDS011;7770;52.158;5.372;2023-04-21T11:46:33;34.73;;;29.87;;
15340;SDS011;7770;52.158;5.372;2023-04-21T11:49:23;32.63;;;28.67;;
15340;SDS011;7770;52.158;5.372;2023-04-21T11:52:23;32.33;;;27.80;;
15340;SDS011;7770;52.158;5.372;2023-04-21T11:55:17;31.93;;;28.23;;
15340;SDS011;7770;52.158;5.372;2023-04-21T11:58:04;33.33;;;29.73;;
15340;SDS011;7770;52.158;5.372;2023-04-21T12:00:50;33.00;;;29.60;;
15340;SDS011;7770;52.158;5.372;2023-04-21T12:03:36;29.77;;;25.27;;
15340;SDS011;7770;52.158;5.372;2023-04-21T12:06:22;29.80;;;26.80;;
15340;SDS011;7770;52.158;5.372;2023-04-21T12:09:16;30.13;;;27.13;;
15340;SDS011;7770;52.158;5.372;2023-04-21T12:12:04;31.03;;;27.83;;
15340;SDS011;7770;52.158;5.372;2023-04-21T12:14:52;30.60;;;27.40;;
15340;SDS011;7770;52.158;5.372;2023-04-21T12:17:45;30.03;;;27.07;;
15340;SDS011;7770;52.158;5.372;2023-04-21T12:20:33;30.90;;;27.70;;
15340;SDS011;7770;52.158;5.372;2023-04-21T12:23:19;28.73;;;25.73;;
15340;SDS011;7770;52.158;5.372;2023-04-21T12:26:05;30.13;;;27.00;;
15340;SDS011;7770;52.158;5.372;2023-04-21T12:28:51;27.90;;;22.03;;
15340;SDS011;7770;52.158;5.372;2023-04-21T12:31:38;31.60;;;28.23;;
15340;SDS011;7770;52.158;5.372;2023-04-21T12:34:24;30.83;;;27.73;;
15340;SDS011;7770;52.158;5.372;2023-04-21T12:37:10;30.33;;;19.63;;
15340;SDS011;7770;52.158;5.372;2023-04-21T12:39:56;27.03;;;24.23;;
15340;SDS011;7770;52.158;5.372;2023-04-21T12:42:42;26.97;;;21.97;;
15340;SDS011;7770;52.158;5.372;2023-04-21T12:45:28;28.47;;;25.57;;
15340;SDS011;7770;52.158;5.372;2023-04-21T12:48:16;26.07;;;22.87;;
15340;SDS011;7770;52.158;5.372;2023-04-21T12:51:04;27.17;;;24.37;;
15340;SDS011;7770;52.158;5.372;2023-04-21T12:53:50;26.63;;;23.40;;
15340;SDS011;7770;52.158;5.372;2023-04-21T12:56:37;29.53;;;26.37;;
15340;SDS011;7770;52.158;5.372;2023-04-21T12:59:24;30.17;;;26.97;;
15340;SDS011;7770;52.158;5.372;2023-04-21T13:02:10;31.03;;;27.73;;
15340;SDS011;7770;52.158;5.372;2023-04-21T13:04:56;32.70;;;27.93;;
15340;SDS011;7770;52.158;5.372;2023-04-21T13:07:42;33.07;;;29.47;;
15340;SDS011;7770;52.158;5.372;2023-04-21T13:10:28;32.80;;;29.30;;
15340;SDS011;7770;52.158;5.372;2023-04-21T13:13:14;32.60;;;28.00;;
15340;SDS011;7770;52.158;5.372;2023-04-21T13:16:00;33.80;;;29.73;;
15340;SDS011;7770;52.158;5.372;2023-04-21T13:18:46;32.80;;;27.43;;
15340;SDS011;7770;52.158;5.372;2023-04-21T13:21:32;34.10;;;28.67;;
15340;SDS011;7770;52.158;5.372;2023-04-21T13:24:18;29.77;;;25.07;;
15340;SDS011;7770;52.158;5.372;2023-04-21T13:27:04;31.93;;;27.73;;
15340;SDS011;7770;52.158;5.372;2023-04-21T13:29:50;32.70;;;29.30;;
15340;SDS011;7770;52.158;5.372;2023-04-21T13:32:38;34.73;;;31.00;;
15340;SDS011;7770;52.158;5.372;2023-04-21T13:35:25;31.57;;;27.20;;
15340;SDS011;7770;52.158;5.372;2023-04-21T13:38:11;36.03;;;31.67;;
15340;SDS011;7770;52.158;5.372;2023-04-21T13:40:57;30.03;;;25.17;;
15340;SDS011;7770;52.158;5.372;2023-04-21T13:43:43;37.33;;;31.97;;
15340;SDS011;7770;52.158;5.372;2023-04-21T13:46:29;33.57;;;30.10;;
15340;SDS011;7770;52.158;5.372;2023-04-21T13:49:15;35.07;;;31.20;;
15340;SDS011;7770;52.158;5.372;2023-04-21T13:52:01;33.57;;;30.07;;
15340;SDS011;7770;52.158;5.372;2023-04-21T13:54:47;33.47;;;30.07;;
15340;SDS011;7770;52.158;5.372;2023-04-21T13:57:34;32.37;;;28.97;;
15340;SDS011;7770;52.158;5.372;2023-04-21T14:00:21;31.10;;;27.93;;
15340;SDS011;7770;52.158;5.372;2023-04-21T14:03:07;32.23;;;27.73;;
15340;SDS011;7770;52.158;5.372;2023-04-21T14:05:54;32.87;;;29.37;;
15340;SDS011;7770;52.158;5.372;2023-04-21T14:08:40;29.70;;;22.97;;
15340;SDS011;7770;52.158;5.372;2023-04-21T14:11:26;30.27;;;27.10;;
15340;SDS011;7770;52.158;5.372;2023-04-21T14:14:12;29.67;;;26.67;;
15340;SDS011;7770;52.158;5.372;2023-04-21T14:16:58;29.00;;;26.10;;
15340;SDS011;7770;52.158;5.372;2023-04-21T14:19:44;27.17;;;24.27;;
15340;SDS011;7770;52.158;5.372;2023-04-21T14:22:31;31.97;;;28.87;;
15340;SDS011;7770;52.158;5.372;2023-04-21T14:25:17;29.20;;;26.30;;
15340;SDS011;7770;52.158;5.372;2023-04-21T14:28:03;26.93;;;24.13;;
15340;SDS011;7770;52.158;5.372;2023-04-21T14:30:53;28.67;;;24.77;;
15340;SDS011;7770;52.158;5.372;2023-04-21T14:33:39;27.30;;;24.40;;
15340;SDS011;7770;52.158;5.372;2023-04-21T14:36:25;27.53;;;24.63;;
15340;SDS011;7770;52.158;5.372;2023-04-21T14:39:12;26.50;;;23.70;;
15340;SDS011;7770;52.158;5.372;2023-04-21T14:41:58;25.23;;;22.73;;
15340;SDS011;7770;52.158;5.372;2023-04-21T14:44:44;24.23;;;21.83;;
15340;SDS011;7770;52.158;5.372;2023-04-21T14:47:30;26.93;;;22.03;;
15340;SDS011;7770;52.158;5.372;2023-04-21T14:50:17;23.33;;;20.77;;
15340;SDS011;7770;52.158;5.372;2023-04-21T14:53:03;25.00;;;22.50;;
15340;SDS011;7770;52.158;5.372;2023-04-21T14:55:49;24.13;;;21.53;;
15340;SDS011;7770;52.158;5.372;2023-04-21T14:58:35;25.70;;;23.13;;
15340;SDS011;7770;52.158;5.372;2023-04-21T15:01:21;25.57;;;23.07;;
15340;SDS011;7770;52.158;5.372;2023-04-21T15:04:07;27.37;;;24.67;;
15340;SDS011;7770;52.158;5.372;2023-04-21T15:06:53;25.87;;;23.27;;
15340;SDS011;7770;52.158;5.372;2023-04-21T15:09:39;25.90;;;23.33;;
15340;SDS011;7770;52.158;5.372;2023-04-21T15:12:30;28.33;;;25.20;;
15340;SDS011;7770;52.158;5.372;2023-04-21T15:15:16;30.33;;;27.03;;
15340;SDS011;7770;52.158;5.372;2023-04-21T15:18:03;27.70;;;24.27;;
15340;SDS011;7770;52.158;5.372;2023-04-21T15:20:49;32.33;;;24.90;;
15340;SDS011;7770;52.158;5.372;2023-04-21T15:23:35;23.17;;;19.57;;
15340;SDS011;7770;52.158;5.372;2023-04-21T15:26:22;25.53;;;22.73;;
15340;SDS011;7770;52.158;5.372;2023-04-21T15:29:08;29.03;;;25.93;;
15340;SDS011;7770;52.158;5.372;2023-04-21T15:31:54;29.13;;;26.13;;
15340;SDS011;7770;52.158;5.372;2023-04-21T15:34:40;29.33;;;26.40;;
15340;SDS011;7770;52.158;5.372;2023-04-21T15:37:26;30.20;;;27.20;;
15340;SDS011;7770;52.158;5.372;2023-04-21T15:40:12;29.93;;;26.60;;
15340;SDS011;7770;52.158;5.372;2023-04-21T15:42:58;31.33;;;28.23;;
15340;SDS011;7770;52.158;5.372;2023-04-21T15:45:44;28.43;;;25.33;;
15340;SDS011;7770;52.158;5.372;2023-04-21T15:48:30;32.97;;;24.23;;
15340;SDS011;7770;52.158;5.372;2023-04-21T15:51:17;30.03;;;27.03;;
15340;SDS011;7770;52.158;5.372;2023-04-21T15:54:03;31.30;;;28.10;;
15340;SDS011;7770;52.158;5.372;2023-04-21T15:56:49;31.10;;;27.87;;
15340;SDS011;7770;52.158;5.372;2023-04-21T15:59:35;30.57;;;27.43;;
15340;SDS011;7770;52.158;5.372;2023-04-21T16:02:21;29.07;;;25.30;;
15340;SDS011;7770;52.158;5.372;2023-04-21T16:05:08;29.90;;;26.93;;
15340;SDS011;7770;52.158;5.372;2023-04-21T16:07:54;29.53;;;26.43;;
15340;SDS011;7770;52.158;5.372;2023-04-21T16:10:40;30.13;;;27.13;;
15340;SDS011;7770;52.158;5.372;2023-04-21T16:13:26;30.40;;;27.20;;
15340;SDS011;7770;52.158;5.372;2023-04-21T16:16:12;31.33;;;28.03;;
15340;SDS011;7770;52.158;5.372;2023-04-21T16:18:58;31.57;;;28.17;;
15340;SDS011;7770;52.158;5.372;2023-04-21T16:21:44;29.90;;;26.97;;
15340;SDS011;7770;52.158;5.372;2023-04-21T16:24:30;31.13;;;27.60;;
15340;SDS011;7770;52.158;5.372;2023-04-21T16:27:16;30.23;;;27.30;;
15340;SDS011;7770;52.158;5.372;2023-04-21T16:30:02;29.67;;;26.63;;
15340;SDS011;7770;52.158;5.372;2023-04-21T16:32:48;31.20;;;27.90;;
15340;SDS011;7770;52.158;5.372;2023-04-21T16:35:34;29.00;;;26.10;;